createdAt,value
2023-08-12T00:00:23.301Z,50.66
2023-08-12T00:02:50.281Z,51.04
2023-08-12T00:05:17.341Z,50.66
2023-08-12T00:07:44.492Z,49.91
2023-08-12T00:10:13.191Z,49.51
2023-08-12T00:12:40.577Z,50.12
2023-08-12T00:15:09.521Z,50.45
2023-08-12T00:17:38.558Z,52.85
2023-08-12T00:20:11.962Z,52.89
2023-08-12T00:22:39.981Z,51.66
2023-08-12T00:25:07.755Z,50.93
2023-08-12T00:27:35.384Z,51.80
2023-08-12T00:30:02.592Z,52.07
2023-08-12T00:32:29.754Z,51.27
2023-08-12T00:34:56.902Z,51.64
2023-08-12T00:37:24.265Z,51.77
2023-08-12T00:39:51.253Z,51.34
2023-08-12T00:42:18.292Z,51.16
2023-08-12T00:44:45.228Z,51.88
2023-08-12T00:47:12.394Z,50.88
2023-08-12T00:49:41.491Z,51.88
2023-08-12T00:52:08.468Z,50.33
2023-08-12T00:54:35.419Z,53.08
2023-08-12T00:57:02.628Z,53.44
2023-08-12T00:59:30.388Z,55.25
2023-08-12T01:01:57.460Z,55.48
2023-08-12T01:04:24.438Z,55.17
2023-08-12T01:06:51.449Z,54.21
2023-08-12T01:09:18.517Z,53.33
2023-08-12T01:12:07.947Z,53.46
2023-08-12T01:14:47.834Z,53.38
2023-08-12T01:17:15.987Z,53.60
2023-08-12T01:19:44.266Z,51.62
2023-08-12T01:22:12.933Z,51.69
2023-08-12T01:24:41.512Z,52.57
2023-08-12T01:27:10.822Z,53.44
2023-08-12T01:29:43.226Z,54.39
2023-08-12T01:32:42.304Z,52.82
2023-08-12T01:35:15.356Z,53.32
2023-08-12T01:37:42.624Z,53.61
2023-08-12T01:40:11.210Z,53.85
2023-08-12T01:42:40.680Z,53.75
2023-08-12T01:45:08.200Z,52.01
2023-08-12T01:47:35.276Z,51.14
2023-08-12T01:50:02.191Z,51.87
2023-08-12T01:52:30.249Z,50.85
2023-08-12T01:54:57.307Z,52.71
2023-08-12T01:57:24.223Z,52.27
2023-08-12T01:59:52.376Z,53.87
2023-08-12T02:02:19.299Z,52.38
2023-08-12T02:04:46.177Z,50.78
2023-08-12T02:07:13.490Z,51.94
2023-08-12T02:09:40.669Z,51.60
2023-08-12T02:12:08.172Z,53.18
2023-08-12T02:14:35.118Z,52.83
2023-08-12T02:17:02.098Z,52.26
2023-08-12T02:19:29.007Z,51.48
2023-08-12T02:21:55.976Z,51.08
2023-08-12T02:24:22.898Z,51.33
2023-08-12T02:26:49.866Z,52.10
2023-08-12T02:29:16.826Z,51.16
2023-08-12T02:31:43.942Z,53.29
2023-08-12T02:34:11.410Z,54.25
2023-08-12T02:36:38.392Z,53.83
2023-08-12T02:39:06.081Z,54.15
2023-08-12T02:41:33.024Z,54.54
2023-08-12T02:43:59.900Z,56.50
2023-08-12T02:46:26.875Z,55.71
2023-08-12T02:48:53.827Z,55.34
2023-08-12T02:51:20.770Z,55.13
2023-08-12T02:53:47.682Z,56.34
2023-08-12T02:56:14.703Z,56.70
2023-08-12T02:58:41.643Z,54.93
2023-08-12T03:01:09.254Z,54.08
2023-08-12T03:03:36.297Z,56.96
2023-08-12T03:06:03.387Z,58.16
2023-08-12T03:08:30.356Z,57.84
2023-08-12T03:11:03.917Z,57.40
2023-08-12T03:13:31.318Z,56.13
2023-08-12T03:15:58.434Z,57.68
2023-08-12T03:18:25.439Z,55.61
2023-08-12T03:20:52.359Z,55.79
2023-08-12T03:23:19.318Z,54.08
2023-08-12T03:25:48.520Z,55.31
2023-08-12T03:28:15.557Z,54.58
2023-08-12T03:30:42.696Z,55.93
2023-08-12T03:33:09.656Z,56.48
2023-08-12T03:35:36.593Z,57.46
2023-08-12T03:38:03.611Z,56.01
2023-08-12T03:40:30.583Z,55.37
2023-08-12T03:42:57.538Z,54.76
2023-08-12T03:45:24.487Z,54.81
2023-08-12T03:47:51.526Z,55.16
2023-08-12T03:50:18.521Z,56.42
2023-08-12T03:52:45.511Z,57.19
2023-08-12T03:55:12.597Z,56.33
2023-08-12T03:57:39.500Z,54.86
2023-08-12T04:00:09.199Z,53.78
2023-08-12T04:02:36.470Z,54.30
2023-08-12T04:05:03.397Z,53.51
2023-08-12T04:07:30.329Z,53.16
2023-08-12T04:09:57.217Z,53.06
2023-08-12T04:12:24.149Z,53.14
2023-08-12T04:14:51.095Z,52.01
2023-08-12T04:17:18.072Z,50.35
2023-08-12T04:19:45.023Z,50.63
2023-08-12T04:22:12.064Z,50.33
2023-08-12T04:24:39.373Z,49.55
2023-08-12T04:27:06.353Z,48.42
2023-08-12T04:29:33.472Z,47.73
2023-08-12T04:32:00.512Z,47.39
2023-08-12T04:34:27.453Z,46.48
2023-08-12T04:36:54.383Z,45.58
2023-08-12T04:39:21.256Z,44.38
2023-08-12T04:41:48.206Z,43.23
2023-08-12T04:44:15.224Z,42.14
2023-08-12T04:46:42.286Z,40.85
2023-08-12T04:49:09.202Z,39.71
2023-08-12T04:51:36.150Z,39.43
2023-08-12T04:54:03.392Z,37.74
2023-08-12T04:56:30.478Z,36.46
2023-08-12T04:58:57.549Z,35.71
2023-08-12T05:01:24.526Z,35.98
2023-08-12T05:03:51.525Z,35.32
2023-08-12T05:06:18.480Z,35.48
2023-08-12T05:08:45.426Z,35.45
2023-08-12T05:11:12.329Z,34.68
2023-08-12T05:13:39.322Z,33.70
2023-08-12T05:16:06.288Z,32.70
2023-08-12T05:18:33.238Z,31.39
2023-08-12T05:21:00.350Z,30.25
2023-08-12T05:23:27.912Z,30.20
2023-08-12T05:25:55.705Z,31.52
2023-08-12T05:28:22.929Z,30.77
2023-08-12T05:30:50.080Z,30.47
2023-08-12T05:33:17.175Z,29.40
2023-08-12T05:35:44.155Z,28.47
2023-08-12T05:38:11.145Z,28.80
2023-08-12T05:40:38.076Z,28.67
2023-08-12T05:43:05.047Z,27.57
2023-08-12T05:45:32.014Z,26.67
2023-08-12T05:47:59.216Z,27.07
2023-08-12T05:50:26.160Z,26.28
2023-08-12T05:52:53.202Z,25.31
2023-08-12T05:55:20.150Z,24.52
2023-08-12T05:57:47.064Z,24.90
2023-08-12T06:00:14.204Z,25.25
2023-08-12T06:02:41.235Z,25.18
2023-08-12T06:05:08.947Z,24.07
2023-08-12T06:07:35.933Z,24.18
2023-08-12T06:10:03.357Z,25.60
2023-08-12T06:12:30.296Z,24.11
2023-08-12T06:14:57.249Z,24.51
2023-08-12T06:17:24.218Z,25.65
2023-08-12T06:19:51.160Z,26.27
2023-08-12T06:22:18.094Z,26.29
2023-08-12T06:24:45.242Z,27.34
2023-08-12T06:27:12.178Z,27.10
2023-08-12T06:29:39.139Z,28.81
2023-08-12T06:32:06.565Z,27.84
2023-08-12T06:34:33.526Z,27.70
2023-08-12T06:37:00.416Z,27.13
2023-08-12T06:39:27.369Z,27.48
2023-08-12T06:41:54.328Z,28.15
2023-08-12T06:44:21.262Z,26.75
2023-08-12T06:46:48.167Z,27.70
2023-08-12T06:49:15.164Z,29.10
2023-08-12T06:51:42.462Z,28.27
2023-08-12T06:54:09.441Z,28.95
2023-08-12T06:56:36.379Z,27.36
2023-08-12T06:59:03.348Z,28.79
2023-08-12T07:01:30.369Z,30.28
2023-08-12T07:03:57.441Z,29.97
2023-08-12T07:06:24.340Z,30.39
2023-08-12T07:08:51.300Z,28.72
2023-08-12T07:11:18.247Z,30.30
2023-08-12T07:13:47.652Z,28.43
2023-08-12T07:16:14.863Z,28.51
2023-08-12T07:18:41.906Z,28.48
2023-08-12T07:21:08.950Z,28.23
2023-08-12T07:23:35.902Z,25.08
2023-08-12T07:26:02.860Z,23.83
2023-08-12T07:28:29.794Z,24.09
2023-08-12T07:30:56.724Z,24.75
2023-08-12T07:33:23.772Z,22.75
2023-08-12T07:35:50.738Z,22.33
2023-08-12T07:38:17.706Z,22.41
2023-08-12T07:40:44.741Z,22.23
2023-08-12T07:43:11.698Z,22.54
2023-08-12T07:45:38.642Z,24.21
2023-08-12T07:48:05.996Z,24.25
2023-08-12T07:50:33.019Z,23.19
2023-08-12T07:53:00.088Z,22.27
2023-08-12T07:55:27.636Z,23.05
2023-08-12T07:57:54.748Z,23.11
2023-08-12T08:00:21.884Z,23.98
2023-08-12T08:02:49.156Z,23.36
2023-08-12T08:05:16.339Z,23.11
2023-08-12T08:07:43.381Z,23.72
2023-08-12T08:10:10.970Z,23.76
2023-08-12T08:12:37.998Z,24.20
2023-08-12T08:15:05.380Z,23.73
2023-08-12T08:17:32.411Z,22.78
2023-08-12T08:19:59.500Z,21.89
2023-08-12T08:22:26.476Z,21.90
2023-08-12T08:24:53.492Z,23.48
2023-08-12T08:27:20.883Z,23.72
2023-08-12T08:29:47.870Z,24.77
2023-08-12T08:32:14.969Z,24.20
2023-08-12T08:34:41.861Z,24.20
2023-08-12T08:37:08.795Z,24.08
2023-08-12T08:39:35.748Z,25.75
2023-08-12T08:42:04.219Z,26.70
2023-08-12T08:44:32.557Z,28.86
2023-08-12T08:47:00.698Z,27.54
2023-08-12T08:49:27.936Z,28.35
2023-08-12T08:51:54.889Z,28.10
2023-08-12T08:54:22.573Z,28.85
2023-08-12T08:56:54.413Z,27.61
2023-08-12T08:59:25.729Z,27.56
2023-08-12T09:01:53.105Z,26.83
2023-08-12T09:04:23.133Z,26.88
2023-08-12T09:06:51.379Z,29.81
2023-08-12T09:09:21.273Z,28.12
2023-08-12T09:11:49.302Z,26.81
2023-08-12T09:14:16.404Z,27.00
2023-08-12T09:16:43.327Z,28.38
2023-08-12T09:19:10.614Z,29.34
2023-08-12T09:21:38.011Z,28.48
2023-08-12T09:24:07.539Z,29.02
2023-08-12T09:26:34.558Z,28.22
2023-08-12T09:29:01.871Z,26.92
2023-08-12T09:31:31.840Z,26.86
2023-08-12T09:34:00.169Z,27.86
2023-08-12T09:36:31.333Z,28.59
2023-08-12T09:38:59.584Z,26.67
2023-08-12T09:41:28.845Z,27.13
2023-08-12T09:43:57.657Z,28.80
2023-08-12T09:46:25.378Z,27.37
2023-08-12T09:48:55.741Z,27.87
2023-08-12T09:51:23.687Z,27.31
2023-08-12T09:53:51.355Z,27.50
2023-08-12T09:56:24.523Z,26.88
2023-08-12T09:58:51.897Z,27.99
2023-08-12T10:01:22.144Z,26.18
2023-08-12T10:03:52.789Z,25.25
2023-08-12T10:06:19.985Z,27.02
2023-08-12T10:08:50.556Z,28.72
2023-08-12T10:11:17.782Z,28.27
2023-08-12T10:13:44.837Z,26.28
2023-08-12T10:16:13.021Z,27.23
2023-08-12T10:18:41.729Z,25.97
2023-08-12T10:21:15.012Z,27.96
2023-08-12T10:23:45.899Z,26.53
2023-08-12T10:26:14.878Z,27.87
2023-08-12T10:28:42.102Z,27.97
2023-08-12T10:31:09.123Z,28.45
2023-08-12T10:33:42.839Z,29.01
2023-08-12T10:36:10.847Z,27.03
2023-08-12T10:38:38.011Z,27.48
2023-08-12T10:41:24.315Z,27.21
2023-08-12T10:44:02.848Z,27.31
2023-08-12T10:46:37.032Z,26.94
2023-08-12T10:49:07.191Z,26.75
2023-08-12T10:51:50.817Z,28.11
2023-08-12T10:54:24.492Z,28.06
2023-08-12T10:57:12.706Z,25.66
2023-08-12T10:59:45.877Z,25.88
2023-08-12T11:02:30.515Z,25.78
2023-08-12T11:05:01.569Z,25.60
2023-08-12T11:07:45.999Z,23.66
2023-08-12T11:10:17.047Z,25.65
2023-08-12T11:12:50.554Z,25.62
2023-08-12T11:15:17.680Z,25.24
2023-08-12T11:17:44.654Z,25.31
2023-08-12T11:20:13.080Z,26.11
2023-08-12T11:22:42.359Z,26.78
2023-08-12T11:25:11.127Z,26.71
2023-08-12T11:27:39.495Z,25.46
2023-08-12T11:30:07.167Z,25.87
2023-08-12T11:32:34.147Z,25.58
2023-08-12T11:35:01.164Z,25.52
2023-08-12T11:37:28.208Z,24.86
2023-08-12T11:39:55.164Z,28.61
2023-08-12T11:42:22.201Z,28.94
2023-08-12T11:44:49.166Z,28.81
2023-08-12T11:47:16.065Z,26.98
2023-08-12T11:49:42.996Z,27.39
2023-08-12T11:52:12.139Z,26.71
2023-08-12T11:54:40.370Z,25.86
2023-08-12T11:57:07.511Z,24.66
2023-08-12T11:59:34.470Z,25.63
2023-08-12T12:02:03.930Z,25.17
2023-08-12T12:04:33.012Z,25.40
2023-08-12T12:07:01.263Z,24.97
2023-08-12T12:09:30.745Z,28.20
2023-08-12T12:11:57.678Z,30.56
2023-08-12T12:14:26.877Z,27.43
2023-08-12T12:16:53.821Z,26.55
2023-08-12T12:19:24.156Z,25.43
2023-08-12T12:21:52.734Z,25.76
2023-08-12T12:24:20.746Z,27.28
2023-08-12T12:26:51.055Z,27.49
2023-08-12T12:29:17.952Z,26.78
2023-08-12T12:31:44.848Z,26.36
2023-08-12T12:34:11.824Z,28.67
2023-08-12T12:36:40.061Z,26.91
2023-08-12T12:39:07.462Z,27.17
2023-08-12T12:41:35.005Z,26.98
2023-08-12T12:44:05.020Z,26.54
2023-08-12T12:46:33.035Z,26.20
2023-08-12T12:49:00.031Z,27.61
2023-08-12T12:51:27.079Z,28.29
2023-08-12T12:53:54.261Z,30.59
2023-08-12T12:56:21.300Z,30.14
2023-08-12T12:58:48.701Z,27.64
2023-08-12T13:01:15.821Z,28.77
2023-08-12T13:03:42.937Z,30.11
2023-08-12T13:06:10.925Z,31.55
2023-08-12T13:08:38.069Z,29.66
2023-08-12T13:11:04.991Z,29.74
2023-08-12T13:13:31.996Z,28.29
2023-08-12T13:15:59.034Z,28.08
2023-08-12T13:18:26.033Z,28.06
2023-08-12T13:20:53.032Z,28.81
2023-08-12T13:23:19.965Z,27.29
2023-08-12T13:25:47.431Z,26.50
2023-08-12T13:28:14.465Z,27.80
2023-08-12T13:30:41.499Z,27.80
2023-08-12T13:33:08.535Z,27.71
2023-08-12T13:35:35.609Z,28.03
2023-08-12T13:38:02.608Z,26.97
2023-08-12T13:40:29.691Z,29.28
2023-08-12T13:42:56.742Z,29.91
2023-08-12T13:45:24.894Z,28.88
2023-08-12T13:47:52.891Z,30.57
2023-08-12T13:50:19.930Z,30.32
2023-08-12T13:52:48.417Z,29.98
2023-08-12T13:55:15.360Z,31.48
2023-08-12T13:57:42.274Z,30.59
2023-08-12T14:00:11.096Z,31.14
2023-08-12T14:02:38.168Z,31.65
2023-08-12T14:05:06.163Z,29.86
2023-08-12T14:07:33.212Z,31.87
2023-08-12T14:10:00.808Z,30.96
2023-08-12T14:12:27.995Z,32.00
2023-08-12T14:14:54.980Z,30.66
2023-08-12T14:17:24.393Z,32.71
2023-08-12T14:19:59.657Z,31.63
2023-08-12T14:22:26.973Z,32.00
2023-08-12T14:27:21.157Z,31.03
2023-08-12T14:29:48.062Z,31.30
2023-08-12T14:32:17.368Z,31.99
2023-08-12T14:34:46.506Z,32.50
2023-08-12T14:37:14.055Z,31.43
2023-08-12T14:39:41.224Z,30.67
2023-08-12T14:42:09.728Z,30.55
2023-08-12T14:44:37.493Z,31.79
2023-08-12T14:47:05.297Z,32.84
2023-08-12T14:49:32.347Z,33.00
2023-08-12T14:51:59.336Z,32.11
2023-08-12T14:54:26.298Z,32.89
2023-08-12T14:56:53.333Z,31.51
2023-08-12T14:59:20.279Z,31.90
2023-08-12T15:01:47.223Z,31.84
2023-08-12T15:04:14.159Z,33.33
2023-08-12T15:06:41.065Z,32.76
2023-08-12T15:09:08.199Z,32.08
2023-08-12T15:11:35.237Z,30.68
2023-08-12T15:14:02.172Z,30.57
2023-08-12T15:16:29.173Z,33.39
2023-08-12T15:18:56.178Z,32.06
2023-08-12T15:21:23.146Z,31.52
2023-08-12T15:23:50.127Z,31.71
2023-08-12T15:26:17.303Z,32.05
2023-08-12T15:28:44.309Z,29.41
2023-08-12T15:31:14.046Z,30.45
2023-08-12T15:33:41.065Z,31.86
2023-08-12T15:36:08.101Z,30.91
2023-08-12T15:38:35.295Z,31.17
2023-08-12T15:41:02.768Z,30.58
2023-08-12T15:43:29.895Z,31.41
2023-08-12T15:45:56.867Z,31.61
2023-08-12T15:48:23.846Z,31.52
2023-08-12T15:50:50.780Z,32.36
2023-08-12T15:53:17.708Z,31.17
2023-08-12T15:55:44.610Z,30.69
2023-08-12T15:58:11.567Z,30.93
2023-08-12T16:00:41.402Z,31.55
2023-08-12T16:03:08.582Z,30.66
2023-08-12T16:05:35.646Z,31.25
2023-08-12T16:08:02.826Z,32.62
2023-08-12T16:10:29.754Z,30.12
2023-08-12T16:12:56.773Z,31.48
2023-08-12T16:15:23.830Z,30.37
2023-08-12T16:17:50.749Z,31.74
2023-08-12T16:20:18.036Z,33.15
2023-08-12T16:22:45.017Z,33.12
2023-08-12T16:25:12.250Z,32.85
2023-08-12T16:27:39.125Z,31.70
2023-08-12T16:30:06.706Z,31.79
2023-08-12T16:32:33.673Z,32.80
2023-08-12T16:35:00.688Z,33.10
2023-08-12T16:37:27.640Z,32.84
2023-08-12T16:39:54.599Z,32.53
2023-08-12T16:42:23.089Z,32.15
2023-08-12T16:44:50.206Z,34.36
2023-08-12T16:47:17.166Z,34.25
2023-08-12T16:49:44.042Z,33.64
2023-08-12T16:52:11.171Z,33.79
2023-08-12T16:54:38.451Z,33.54
2023-08-12T16:57:05.434Z,33.49
2023-08-12T16:59:32.376Z,33.80
2023-08-12T17:01:59.287Z,35.11
2023-08-12T17:04:26.229Z,34.95
2023-08-12T17:06:53.453Z,34.86
2023-08-12T17:09:20.533Z,34.38
2023-08-12T17:11:47.502Z,34.53
2023-08-12T17:14:14.419Z,34.20
2023-08-12T17:16:41.576Z,34.14
2023-08-12T17:19:08.569Z,34.80
2023-08-12T17:21:35.553Z,35.42
2023-08-12T17:24:02.530Z,34.69
2023-08-12T17:26:29.480Z,34.87
2023-08-12T17:28:56.406Z,34.57
2023-08-12T17:31:23.465Z,35.11
2023-08-12T17:33:50.463Z,34.99
2023-08-12T17:36:17.403Z,35.86
2023-08-12T17:38:44.444Z,34.66
2023-08-12T17:41:11.611Z,34.95
2023-08-12T17:43:39.080Z,34.81
2023-08-12T17:46:06.216Z,35.03
2023-08-12T17:48:33.545Z,35.83
2023-08-12T17:51:00.513Z,36.03
2023-08-12T17:53:27.602Z,35.17
2023-08-12T17:55:54.571Z,35.04
2023-08-12T17:58:21.680Z,35.04
2023-08-12T18:00:48.743Z,36.08
2023-08-12T18:03:15.917Z,37.09
2023-08-12T18:05:42.954Z,38.32
2023-08-12T18:08:09.882Z,38.18
2023-08-12T18:10:36.823Z,37.48
2023-08-12T18:13:03.829Z,38.60
2023-08-12T18:15:30.843Z,38.98
2023-08-12T18:17:57.974Z,39.06
2023-08-12T18:20:24.899Z,39.76
2023-08-12T18:22:51.837Z,40.15
2023-08-12T18:25:18.902Z,40.45
2023-08-12T18:27:45.869Z,40.82
2023-08-12T18:30:13.297Z,40.88
2023-08-12T18:32:40.765Z,41.37
2023-08-12T18:35:08.145Z,42.36
2023-08-12T18:37:35.228Z,42.86
2023-08-12T18:40:02.265Z,42.43
2023-08-12T18:42:29.199Z,42.78
2023-08-12T18:44:56.161Z,44.78
2023-08-12T18:47:23.082Z,45.23
2023-08-12T18:49:49.996Z,46.39
2023-08-12T18:52:17.014Z,47.37
2023-08-12T18:54:43.970Z,48.40
2023-08-12T18:57:10.882Z,47.64
2023-08-12T18:59:38.432Z,46.94
2023-08-12T19:02:05.719Z,47.36
2023-08-12T19:04:32.710Z,47.77
2023-08-12T19:07:00.160Z,48.23
2023-08-12T19:09:27.592Z,48.73
2023-08-12T19:11:54.715Z,46.75
2023-08-12T19:14:21.723Z,47.20
2023-08-12T19:16:48.682Z,46.04
2023-08-12T19:19:17.270Z,46.62
2023-08-12T19:21:44.960Z,48.05
2023-08-12T19:24:11.885Z,49.08
2023-08-12T19:26:38.792Z,48.97
2023-08-12T19:29:05.723Z,49.85
2023-08-12T19:31:32.771Z,49.69
2023-08-12T19:33:59.792Z,50.62
2023-08-12T19:36:26.724Z,49.78
2023-08-12T19:38:53.623Z,50.23
2023-08-12T19:41:20.645Z,52.71
2023-08-12T19:43:47.651Z,53.46
2023-08-12T19:46:15.625Z,52.39
2023-08-12T19:48:42.586Z,51.92
2023-08-12T19:51:09.495Z,52.48
2023-08-12T19:53:36.375Z,52.15
2023-08-12T19:56:03.276Z,51.68
2023-08-12T19:58:30.215Z,53.37
2023-08-12T20:00:57.269Z,52.35
2023-08-12T20:03:24.506Z,51.46
2023-08-12T20:05:51.557Z,51.72
2023-08-12T20:08:18.466Z,51.12
2023-08-12T20:10:45.402Z,51.34
2023-08-12T20:13:12.338Z,52.89
2023-08-12T20:15:39.262Z,53.76
2023-08-12T20:18:06.394Z,53.20
2023-08-12T20:20:34.234Z,51.74
2023-08-12T20:23:06.373Z,51.94
2023-08-12T20:25:35.312Z,51.94
2023-08-12T20:28:02.907Z,51.46
2023-08-12T20:30:29.844Z,50.57
2023-08-12T20:32:57.026Z,51.65
2023-08-12T20:35:24.070Z,52.40
2023-08-12T20:37:51.242Z,51.17
2023-08-12T20:40:19.338Z,50.82
2023-08-12T20:42:46.716Z,51.67
2023-08-12T20:45:13.858Z,51.28
2023-08-12T20:47:42.487Z,49.85
2023-08-12T20:50:10.101Z,50.84
2023-08-12T20:52:37.172Z,49.48
2023-08-12T20:55:04.834Z,49.83
2023-08-12T20:57:31.878Z,50.77
2023-08-12T21:00:01.886Z,51.51
2023-08-12T21:02:29.899Z,51.37
2023-08-12T21:04:57.119Z,52.45
2023-08-12T21:07:24.115Z,51.91
2023-08-12T21:09:51.030Z,52.53
2023-08-12T21:12:18.120Z,50.93
2023-08-12T21:14:45.085Z,51.70
2023-08-12T21:17:12.026Z,52.20
2023-08-12T21:19:39.008Z,51.46
2023-08-12T21:22:06.051Z,51.80
2023-08-12T21:24:33.011Z,52.65
2023-08-12T21:27:00.010Z,52.17
2023-08-12T21:29:26.910Z,51.59
2023-08-12T21:31:54.231Z,52.54
2023-08-12T21:34:21.337Z,52.24
2023-08-12T21:36:48.350Z,51.70
2023-08-12T21:39:15.332Z,53.27
2023-08-12T21:41:42.260Z,53.61
2023-08-12T21:44:09.307Z,54.60
2023-08-12T21:46:36.380Z,53.79
2023-08-12T21:49:03.470Z,54.21
2023-08-12T21:51:30.724Z,53.42
2023-08-12T21:53:57.650Z,53.30
2023-08-12T21:56:24.627Z,53.86
2023-08-12T21:58:51.535Z,53.01
2023-08-12T22:01:18.531Z,52.39
2023-08-12T22:03:45.571Z,52.97
2023-08-12T22:06:12.663Z,53.68
2023-08-12T22:08:39.820Z,53.78
2023-08-12T22:11:07.091Z,54.53
2023-08-12T22:13:34.110Z,53.97
2023-08-12T22:16:01.099Z,53.87
2023-08-12T22:18:28.088Z,52.95
2023-08-12T22:20:55.465Z,52.29
2023-08-12T22:23:23.654Z,53.69
2023-08-12T22:25:51.350Z,53.83
2023-08-12T22:28:20.201Z,53.93
2023-08-12T22:30:48.771Z,53.69
2023-08-12T22:33:16.519Z,54.56
2023-08-12T22:35:43.867Z,54.50
2023-08-12T22:38:10.921Z,53.71
2023-08-12T22:40:37.920Z,55.15
2023-08-12T22:43:04.961Z,54.78
2023-08-12T22:45:34.478Z,53.53
2023-08-12T22:48:01.536Z,52.71
2023-08-12T22:50:28.507Z,53.27
2023-08-12T22:52:55.566Z,53.09
2023-08-12T22:55:22.652Z,52.48
2023-08-12T22:57:49.720Z,53.86
2023-08-12T23:00:16.809Z,54.11
2023-08-12T23:02:44.100Z,55.00
2023-08-12T23:05:11.597Z,54.87
2023-08-12T23:07:38.546Z,55.24
2023-08-12T23:10:06.120Z,54.50
2023-08-12T23:12:33.076Z,53.94
2023-08-12T23:15:00.022Z,55.58
2023-08-12T23:17:27.033Z,54.82
2023-08-12T23:19:54.143Z,55.53
2023-08-12T23:22:21.085Z,55.97
2023-08-12T23:24:48.031Z,56.54
2023-08-12T23:27:14.982Z,54.45
2023-08-12T23:29:41.941Z,55.11
2023-08-12T23:32:08.982Z,55.55
2023-08-12T23:34:36.003Z,53.71
2023-08-12T23:37:03.334Z,53.67
2023-08-12T23:39:31.987Z,55.75
2023-08-12T23:41:59.262Z,53.37
2023-08-12T23:44:26.249Z,54.23
2023-08-12T23:46:53.252Z,55.82
2023-08-12T23:49:20.217Z,55.52
2023-08-12T23:51:49.334Z,56.03
2023-08-12T23:54:16.366Z,57.18
2023-08-12T23:56:43.355Z,56.58
2023-08-12T23:59:10.317Z,55.85
